sensor_id;sensor_type;location;lat;lon;timestamp;temperature;humidity
18781;DHT22;9519;51.890;8.970;2023-08-12T00:04:15;20.90;94.80
18781;DHT22;9519;51.890;8.970;2023-08-12T00:09:19;20.90;95.00
18781;DHT22;9519;51.890;8.970;2023-08-12T00:14:21;20.90;95.10
18781;DHT22;9519;51.890;8.970;2023-08-12T00:19:23;20.90;95.20
18781;DHT22;9519;51.890;8.970;2023-08-12T00:24:26;20.90;95.20
18781;DHT22;9519;51.890;8.970;2023-08-12T00:29:28;20.80;95.40
18781;DHT22;9519;51.890;8.970;2023-08-12T00:34:31;20.80;95.40
18781;DHT22;9519;51.890;8.970;2023-08-12T00:39:34;20.80;95.50
18781;DHT22;9519;51.890;8.970;2023-08-12T00:44:36;20.80;95.70
18781;DHT22;9519;51.890;8.970;2023-08-12T00:49:40;20.70;95.80
18781;DHT22;9519;51.890;8.970;2023-08-12T00:54:45;20.70;95.90
18781;DHT22;9519;51.890;8.970;2023-08-12T00:59:49;20.70;96.00
18781;DHT22;9519;51.890;8.970;2023-08-12T01:04:51;20.70;96.10
18781;DHT22;9519;51.890;8.970;2023-08-12T01:09:55;20.60;96.20
18781;DHT22;9519;51.890;8.970;2023-08-12T01:15:03;20.50;96.40
18781;DHT22;9519;51.890;8.970;2023-08-12T01:20:10;20.50;96.60
18781;DHT22;9519;51.890;8.970;2023-08-12T01:25:16;20.50;96.80
18781;DHT22;9519;51.890;8.970;2023-08-12T01:30:20;20.50;96.80
18781;DHT22;9519;51.890;8.970;2023-08-12T01:35:26;20.60;96.80
18781;DHT22;9519;51.890;8.970;2023-08-12T01:40:36;20.70;96.70
18781;DHT22;9519;51.890;8.970;2023-08-12T01:45:41;20.90;96.80
18781;DHT22;9519;51.890;8.970;2023-08-12T01:50:44;21.10;96.60
18781;DHT22;9519;51.890;8.970;2023-08-12T01:55:50;21.30;96.40
18781;DHT22;9519;51.890;8.970;2023-08-12T02:00:54;21.40;96.20
18781;DHT22;9519;51.890;8.970;2023-08-12T02:05:58;21.50;96.00
18781;DHT22;9519;51.890;8.970;2023-08-12T02:11:03;21.60;95.90
18781;DHT22;9519;51.890;8.970;2023-08-12T02:16:07;21.60;95.80
18781;DHT22;9519;51.890;8.970;2023-08-12T02:21:09;21.60;95.70
18781;DHT22;9519;51.890;8.970;2023-08-12T02:26:12;21.60;95.70
18781;DHT22;9519;51.890;8.970;2023-08-12T02:31:15;21.60;95.80
18781;DHT22;9519;51.890;8.970;2023-08-12T02:36:17;21.60;95.80
18781;DHT22;9519;51.890;8.970;2023-08-12T02:41:21;21.50;95.80
18781;DHT22;9519;51.890;8.970;2023-08-12T02:46:23;21.30;96.10
18781;DHT22;9519;51.890;8.970;2023-08-12T02:51:26;21.30;96.30
18781;DHT22;9519;51.890;8.970;2023-08-12T02:56:29;21.20;96.40
18781;DHT22;9519;51.890;8.970;2023-08-12T03:01:31;21.20;96.60
18781;DHT22;9519;51.890;8.970;2023-08-12T03:06:34;21.20;96.60
18781;DHT22;9519;51.890;8.970;2023-08-12T03:11:37;21.20;96.80
18781;DHT22;9519;51.890;8.970;2023-08-12T03:16:39;21.10;96.90
18781;DHT22;9519;51.890;8.970;2023-08-12T03:21:41;21.10;97.10
18781;DHT22;9519;51.890;8.970;2023-08-12T03:26:45;21.00;97.20
18781;DHT22;9519;51.890;8.970;2023-08-12T03:31:47;20.90;97.60
18781;DHT22;9519;51.890;8.970;2023-08-12T03:36:49;20.80;97.70
18781;DHT22;9519;51.890;8.970;2023-08-12T03:41:54;20.70;97.90
18781;DHT22;9519;51.890;8.970;2023-08-12T03:46:56;20.70;98.30
18781;DHT22;9519;51.890;8.970;2023-08-12T03:51:58;20.70;98.50
18781;DHT22;9519;51.890;8.970;2023-08-12T03:57:02;20.60;98.70
18781;DHT22;9519;51.890;8.970;2023-08-12T04:02:05;20.60;99.00
18781;DHT22;9519;51.890;8.970;2023-08-12T04:07:07;20.50;99.20
18781;DHT22;9519;51.890;8.970;2023-08-12T04:12:11;20.50;99.40
18781;DHT22;9519;51.890;8.970;2023-08-12T04:17:13;20.50;99.70
18781;DHT22;9519;51.890;8.970;2023-08-12T04:22:15;20.50;99.80
18781;DHT22;9519;51.890;8.970;2023-08-12T04:27:19;20.50;99.90
18781;DHT22;9519;51.890;8.970;2023-08-12T04:32:21;20.50;99.90
18781;DHT22;9519;51.890;8.970;2023-08-12T04:37:23;20.50;99.90
18781;DHT22;9519;51.890;8.970;2023-08-12T04:42:27;20.50;99.90
18781;DHT22;9519;51.890;8.970;2023-08-12T04:47:30;20.50;99.90
18781;DHT22;9519;51.890;8.970;2023-08-12T04:52:32;20.50;99.90
18781;DHT22;9519;51.890;8.970;2023-08-12T04:57:35;20.40;99.90
18781;DHT22;9519;51.890;8.970;2023-08-12T05:02:38;20.40;99.90
18781;DHT22;9519;51.890;8.970;2023-08-12T05:07:40;20.40;99.90
18781;DHT22;9519;51.890;8.970;2023-08-12T05:12:43;20.40;99.90
18781;DHT22;9519;51.890;8.970;2023-08-12T05:17:46;20.40;99.90
18781;DHT22;9519;51.890;8.970;2023-08-12T05:22:49;20.30;99.90
18781;DHT22;9519;51.890;8.970;2023-08-12T05:27:52;20.30;99.90
18781;DHT22;9519;51.890;8.970;2023-08-12T05:32:54;20.30;99.90
18781;DHT22;9519;51.890;8.970;2023-08-12T05:37:56;20.30;99.90
18781;DHT22;9519;51.890;8.970;2023-08-12T05:43:00;20.30;99.90
18781;DHT22;9519;51.890;8.970;2023-08-12T05:48:02;20.30;99.90
18781;DHT22;9519;51.890;8.970;2023-08-12T05:53:05;20.30;99.90
18781;DHT22;9519;51.890;8.970;2023-08-12T05:58:08;20.30;99.90
18781;DHT22;9519;51.890;8.970;2023-08-12T06:03:11;20.30;99.90
18781;DHT22;9519;51.890;8.970;2023-08-12T06:08:13;20.40;99.90
18781;DHT22;9519;51.890;8.970;2023-08-12T06:13:17;20.40;99.90
18781;DHT22;9519;51.890;8.970;2023-08-12T06:18:19;20.40;99.90
18781;DHT22;9519;51.890;8.970;2023-08-12T06:23:22;20.40;99.90
18781;DHT22;9519;51.890;8.970;2023-08-12T06:28:25;20.40;99.90
18781;DHT22;9519;51.890;8.970;2023-08-12T06:33:27;20.40;99.90
18781;DHT22;9519;51.890;8.970;2023-08-12T06:38:29;20.50;99.90
18781;DHT22;9519;51.890;8.970;2023-08-12T06:43:33;20.50;99.90
18781;DHT22;9519;51.890;8.970;2023-08-12T06:48:36;20.50;99.90
18781;DHT22;9519;51.890;8.970;2023-08-12T06:53:39;20.50;99.90
18781;DHT22;9519;51.890;8.970;2023-08-12T06:58:42;20.50;99.90
18781;DHT22;9519;51.890;8.970;2023-08-12T07:03:44;20.50;99.90
18781;DHT22;9519;51.890;8.970;2023-08-12T07:08:46;20.50;99.90
18781;DHT22;9519;51.890;8.970;2023-08-12T07:13:50;20.50;99.90
18781;DHT22;9519;51.890;8.970;2023-08-12T07:18:52;20.50;99.90
18781;DHT22;9519;51.890;8.970;2023-08-12T07:23:54;20.60;99.90
18781;DHT22;9519;51.890;8.970;2023-08-12T07:28:58;20.70;99.90
18781;DHT22;9519;51.890;8.970;2023-08-12T07:34:00;20.80;99.90
18781;DHT22;9519;51.890;8.970;2023-08-12T07:39:02;21.00;99.90
18781;DHT22;9519;51.890;8.970;2023-08-12T07:44:06;21.10;99.90
18781;DHT22;9519;51.890;8.970;2023-08-12T07:49:08;21.20;99.90
18781;DHT22;9519;51.890;8.970;2023-08-12T07:54:10;21.30;99.90
18781;DHT22;9519;51.890;8.970;2023-08-12T07:59:14;21.40;99.90
18781;DHT22;9519;51.890;8.970;2023-08-12T08:04:16;21.50;99.90
18781;DHT22;9519;51.890;8.970;2023-08-12T08:09:19;21.60;99.90
18781;DHT22;9519;51.890;8.970;2023-08-12T08:14:25;21.70;99.90
18781;DHT22;9519;51.890;8.970;2023-08-12T08:19:27;21.90;99.90
18781;DHT22;9519;51.890;8.970;2023-08-12T08:24:29;22.10;99.90
18781;DHT22;9519;51.890;8.970;2023-08-12T08:29:32;22.20;99.90
18781;DHT22;9519;51.890;8.970;2023-08-12T08:34:34;22.40;99.90
18781;DHT22;9519;51.890;8.970;2023-08-12T08:39:37;22.50;99.90
18781;DHT22;9519;51.890;8.970;2023-08-12T08:44:41;22.60;99.90
18781;DHT22;9519;51.890;8.970;2023-08-12T08:49:44;22.70;99.90
18781;DHT22;9519;51.890;8.970;2023-08-12T08:54:47;22.70;99.90
18781;DHT22;9519;51.890;8.970;2023-08-12T08:59:53;22.70;99.90
18781;DHT22;9519;51.890;8.970;2023-08-12T09:04:55;22.70;99.90
18781;DHT22;9519;51.890;8.970;2023-08-12T09:10:00;22.70;99.90
18781;DHT22;9519;51.890;8.970;2023-08-12T09:15:06;22.70;99.90
18781;DHT22;9519;51.890;8.970;2023-08-12T09:20:10;22.80;99.90
18781;DHT22;9519;51.890;8.970;2023-08-12T09:25:13;22.80;99.90
18781;DHT22;9519;51.890;8.970;2023-08-12T09:30:16;22.80;99.90
18781;DHT22;9519;51.890;8.970;2023-08-12T09:35:18;22.90;99.90
18781;DHT22;9519;51.890;8.970;2023-08-12T09:40:22;23.10;99.90
18781;DHT22;9519;51.890;8.970;2023-08-12T09:45:26;23.20;99.90
18781;DHT22;9519;51.890;8.970;2023-08-12T09:50:29;23.40;99.90
18781;DHT22;9519;51.890;8.970;2023-08-12T09:55:32;23.60;99.90
18781;DHT22;9519;51.890;8.970;2023-08-12T10:00:38;23.70;99.90
18781;DHT22;9519;51.890;8.970;2023-08-12T10:05:42;23.90;99.90
18781;DHT22;9519;51.890;8.970;2023-08-12T10:10:45;24.00;99.90
18781;DHT22;9519;51.890;8.970;2023-08-12T10:15:49;24.00;99.90
18781;DHT22;9519;51.890;8.970;2023-08-12T10:20:52;24.10;99.90
18781;DHT22;9519;51.890;8.970;2023-08-12T10:25:57;24.20;99.90
18781;DHT22;9519;51.890;8.970;2023-08-12T10:31:05;24.40;99.90
18781;DHT22;9519;51.890;8.970;2023-08-12T10:36:08;24.50;99.90
18781;DHT22;9519;51.890;8.970;2023-08-12T10:41:15;24.60;99.90
18781;DHT22;9519;51.890;8.970;2023-08-12T10:46:28;24.60;99.90
18781;DHT22;9519;51.890;8.970;2023-08-12T10:51:44;24.80;99.90
18781;DHT22;9519;51.890;8.970;2023-08-12T10:57:09;24.90;99.90
18781;DHT22;9519;51.890;8.970;2023-08-12T11:02:18;25.00;99.90
18781;DHT22;9519;51.890;8.970;2023-08-12T11:07:28;25.10;99.90
18781;DHT22;9519;51.890;8.970;2023-08-12T11:12:35;25.20;99.90
18781;DHT22;9519;51.890;8.970;2023-08-12T11:17:40;25.40;99.90
18781;DHT22;9519;51.890;8.970;2023-08-12T11:22:44;25.50;99.90
18781;DHT22;9519;51.890;8.970;2023-08-12T11:27:47;25.50;99.20
18781;DHT22;9519;51.890;8.970;2023-08-12T11:32:52;25.40;99.40
18781;DHT22;9519;51.890;8.970;2023-08-12T11:37:57;25.30;99.20
18781;DHT22;9519;51.890;8.970;2023-08-12T11:43:01;25.30;99.60
18781;DHT22;9519;51.890;8.970;2023-08-12T11:48:05;25.30;99.50
18781;DHT22;9519;51.890;8.970;2023-08-12T11:53:08;25.30;99.30
18781;DHT22;9519;51.890;8.970;2023-08-12T11:58:13;25.20;99.30
18781;DHT22;9519;51.890;8.970;2023-08-12T12:03:20;25.20;99.10
18781;DHT22;9519;51.890;8.970;2023-08-12T12:08:22;25.30;99.00
18781;DHT22;9519;51.890;8.970;2023-08-12T12:13:24;25.40;98.90
18781;DHT22;9519;51.890;8.970;2023-08-12T12:18:28;25.30;98.60
18781;DHT22;9519;51.890;8.970;2023-08-12T12:23:31;25.40;97.90
18781;DHT22;9519;51.890;8.970;2023-08-12T12:28:34;25.60;97.40
18781;DHT22;9519;51.890;8.970;2023-08-12T12:33:38;25.70;96.80
18781;DHT22;9519;51.890;8.970;2023-08-12T12:38:40;25.70;95.60
18781;DHT22;9519;51.890;8.970;2023-08-12T12:43:42;25.70;96.20
18781;DHT22;9519;51.890;8.970;2023-08-12T12:48:46;25.80;95.70
18781;DHT22;9519;51.890;8.970;2023-08-12T12:53:48;25.90;95.20
18781;DHT22;9519;51.890;8.970;2023-08-12T12:58:50;26.00;95.10
18781;DHT22;9519;51.890;8.970;2023-08-12T13:03:53;26.10;95.00
18781;DHT22;9519;51.890;8.970;2023-08-12T13:08:55;26.20;95.10
18781;DHT22;9519;51.890;8.970;2023-08-12T13:13:58;26.30;94.50
18781;DHT22;9519;51.890;8.970;2023-08-12T13:19:01;26.20;93.90
18781;DHT22;9519;51.890;8.970;2023-08-12T13:24:05;26.10;93.90
18781;DHT22;9519;51.890;8.970;2023-08-12T13:29:10;26.10;94.20
18781;DHT22;9519;51.890;8.970;2023-08-12T13:34:15;26.20;94.30
18781;DHT22;9519;51.890;8.970;2023-08-12T13:39:17;26.10;93.70
18781;DHT22;9519;51.890;8.970;2023-08-12T13:44:19;26.10;93.90
18781;DHT22;9519;51.890;8.970;2023-08-12T13:49:22;26.10;93.80
18781;DHT22;9519;51.890;8.970;2023-08-12T13:54:25;26.20;94.00
18781;DHT22;9519;51.890;8.970;2023-08-12T13:59:27;26.20;93.70
18781;DHT22;9519;51.890;8.970;2023-08-12T14:04:30;26.20;93.90
18781;DHT22;9519;51.890;8.970;2023-08-12T14:09:33;26.20;93.70
18781;DHT22;9519;51.890;8.970;2023-08-12T14:14:37;25.70;94.50
18781;DHT22;9519;51.890;8.970;2023-08-12T14:19:43;25.10;95.30
18781;DHT22;9519;51.890;8.970;2023-08-12T14:24:46;24.60;96.20
18781;DHT22;9519;51.890;8.970;2023-08-12T14:29:48;24.10;96.90
18781;DHT22;9519;51.890;8.970;2023-08-12T14:34:52;23.80;97.40
18781;DHT22;9519;51.890;8.970;2023-08-12T14:39:54;23.50;98.10
18781;DHT22;9519;51.890;8.970;2023-08-12T14:44:56;23.20;98.60
18781;DHT22;9519;51.890;8.970;2023-08-12T14:49:59;23.00;99.10
18781;DHT22;9519;51.890;8.970;2023-08-12T14:55:02;22.80;99.40
18781;DHT22;9519;51.890;8.970;2023-08-12T15:00:06;22.60;99.80
18781;DHT22;9519;51.890;8.970;2023-08-12T15:05:12;22.40;99.90
18781;DHT22;9519;51.890;8.970;2023-08-12T15:10:14;22.30;99.90
18781;DHT22;9519;51.890;8.970;2023-08-12T15:15:17;22.30;99.90
18781;DHT22;9519;51.890;8.970;2023-08-12T15:20:20;22.20;99.90
18781;DHT22;9519;51.890;8.970;2023-08-12T15:25:22;22.10;99.90
18781;DHT22;9519;51.890;8.970;2023-08-12T15:30:24;22.10;99.90
18781;DHT22;9519;51.890;8.970;2023-08-12T15:35:28;22.00;99.90
18781;DHT22;9519;51.890;8.970;2023-08-12T15:40:30;22.00;99.90
18781;DHT22;9519;51.890;8.970;2023-08-12T15:45:32;22.10;99.90
18781;DHT22;9519;51.890;8.970;2023-08-12T15:50:36;22.50;99.90
18781;DHT22;9519;51.890;8.970;2023-08-12T15:55:38;22.90;99.90
18781;DHT22;9519;51.890;8.970;2023-08-12T16:00:41;23.20;99.90
18781;DHT22;9519;51.890;8.970;2023-08-12T16:05:45;23.30;99.90
18781;DHT22;9519;51.890;8.970;2023-08-12T16:10:49;23.40;99.90
18781;DHT22;9519;51.890;8.970;2023-08-12T16:15:51;23.50;99.90
18781;DHT22;9519;51.890;8.970;2023-08-12T16:20:57;23.40;99.90
18781;DHT22;9519;51.890;8.970;2023-08-12T16:25:59;23.20;99.90
18781;DHT22;9519;51.890;8.970;2023-08-12T16:31:01;23.10;99.90
18781;DHT22;9519;51.890;8.970;2023-08-12T16:36:05;23.00;99.90
18781;DHT22;9519;51.890;8.970;2023-08-12T16:41:07;22.80;99.90
18781;DHT22;9519;51.890;8.970;2023-08-12T16:46:09;22.70;99.90
18781;DHT22;9519;51.890;8.970;2023-08-12T16:51:13;22.80;99.90
18781;DHT22;9519;51.890;8.970;2023-08-12T16:56:15;22.90;99.90
18781;DHT22;9519;51.890;8.970;2023-08-12T17:01:17;22.70;99.90
18781;DHT22;9519;51.890;8.970;2023-08-12T17:06:21;22.50;99.90
18781;DHT22;9519;51.890;8.970;2023-08-12T17:11:23;22.40;99.90
18781;DHT22;9519;51.890;8.970;2023-08-12T17:16:26;22.20;99.90
18781;DHT22;9519;51.890;8.970;2023-08-12T17:21:30;22.10;99.90
18781;DHT22;9519;51.890;8.970;2023-08-12T17:26:34;22.20;99.90
18781;DHT22;9519;51.890;8.970;2023-08-12T17:31:37;22.50;99.90
18781;DHT22;9519;51.890;8.970;2023-08-12T17:36:40;22.60;99.90
18781;DHT22;9519;51.890;8.970;2023-08-12T17:41:42;22.80;99.90
18781;DHT22;9519;51.890;8.970;2023-08-12T17:46:44;23.00;99.90
18781;DHT22;9519;51.890;8.970;2023-08-12T17:51:48;23.00;99.90
18781;DHT22;9519;51.890;8.970;2023-08-12T17:56:50;22.90;99.90
18781;DHT22;9519;51.890;8.970;2023-08-12T18:01:52;22.70;99.90
18781;DHT22;9519;51.890;8.970;2023-08-12T18:06:56;22.60;99.90
18781;DHT22;9519;51.890;8.970;2023-08-12T18:12:00;22.50;99.90
18781;DHT22;9519;51.890;8.970;2023-08-12T18:17:02;22.30;99.90
18781;DHT22;9519;51.890;8.970;2023-08-12T18:22:08;22.10;99.90
18781;DHT22;9519;51.890;8.970;2023-08-12T18:27:11;21.90;99.90
18781;DHT22;9519;51.890;8.970;2023-08-12T18:32:13;21.70;99.90
18781;DHT22;9519;51.890;8.970;2023-08-12T18:37:17;21.60;99.90
18781;DHT22;9519;51.890;8.970;2023-08-12T18:42:19;21.50;99.90
18781;DHT22;9519;51.890;8.970;2023-08-12T18:47:24;21.40;99.90
18781;DHT22;9519;51.890;8.970;2023-08-12T18:52:27;21.40;99.90
18781;DHT22;9519;51.890;8.970;2023-08-12T18:57:29;21.40;99.90
18781;DHT22;9519;51.890;8.970;2023-08-12T19:02:32;21.30;99.90
18781;DHT22;9519;51.890;8.970;2023-08-12T19:07:36;21.30;99.90
18781;DHT22;9519;51.890;8.970;2023-08-12T19:12:39;21.20;99.90
18781;DHT22;9519;51.890;8.970;2023-08-12T19:17:41;21.20;99.90
18781;DHT22;9519;51.890;8.970;2023-08-12T19:22:45;21.10;99.90
18781;DHT22;9519;51.890;8.970;2023-08-12T19:27:48;21.10;99.90
18781;DHT22;9519;51.890;8.970;2023-08-12T19:32:51;21.10;99.90
18781;DHT22;9519;51.890;8.970;2023-08-12T19:37:56;21.00;99.90
18781;DHT22;9519;51.890;8.970;2023-08-12T19:42:59;21.00;99.90
18781;DHT22;9519;51.890;8.970;2023-08-12T19:48:02;20.90;99.90
18781;DHT22;9519;51.890;8.970;2023-08-12T19:53:06;20.80;99.90
18781;DHT22;9519;51.890;8.970;2023-08-12T19:58:08;20.70;99.90
18781;DHT22;9519;51.890;8.970;2023-08-12T20:03:10;20.60;99.90
18781;DHT22;9519;51.890;8.970;2023-08-12T20:08:14;20.60;99.90
18781;DHT22;9519;51.890;8.970;2023-08-12T20:13:17;20.50;99.90
18781;DHT22;9519;51.890;8.970;2023-08-12T20:18:19;20.40;99.90
18781;DHT22;9519;51.890;8.970;2023-08-12T20:23:23;20.40;99.90
18781;DHT22;9519;51.890;8.970;2023-08-12T20:28:25;20.30;99.90
18781;DHT22;9519;51.890;8.970;2023-08-12T20:33:27;20.20;99.90
18781;DHT22;9519;51.890;8.970;2023-08-12T20:38:31;20.20;99.90
18781;DHT22;9519;51.890;8.970;2023-08-12T20:43:33;20.10;99.90
18781;DHT22;9519;51.890;8.970;2023-08-12T20:48:37;20.00;99.90
18781;DHT22;9519;51.890;8.970;2023-08-12T20:53:45;19.90;99.90
18781;DHT22;9519;51.890;8.970;2023-08-12T20:58:48;19.90;99.90
18781;DHT22;9519;51.890;8.970;2023-08-12T21:03:50;19.80;99.90
18781;DHT22;9519;51.890;8.970;2023-08-12T21:08:54;19.80;99.90
18781;DHT22;9519;51.890;8.970;2023-08-12T21:13:56;19.70;99.90
18781;DHT22;9519;51.890;8.970;2023-08-12T21:18:58;19.60;99.90
18781;DHT22;9519;51.890;8.970;2023-08-12T21:24:02;19.60;99.90
18781;DHT22;9519;51.890;8.970;2023-08-12T21:29:04;19.60;99.90
18781;DHT22;9519;51.890;8.970;2023-08-12T21:34:07;19.50;99.90
18781;DHT22;9519;51.890;8.970;2023-08-12T21:39:10;19.40;99.90
18781;DHT22;9519;51.890;8.970;2023-08-12T21:44:13;19.40;99.90
18781;DHT22;9519;51.890;8.970;2023-08-12T21:49:15;19.30;99.90
18781;DHT22;9519;51.890;8.970;2023-08-12T21:54:18;19.30;99.90
18781;DHT22;9519;51.890;8.970;2023-08-12T21:59:20;19.20;99.90
18781;DHT22;9519;51.890;8.970;2023-08-12T22:04:22;19.10;99.90
18781;DHT22;9519;51.890;8.970;2023-08-12T22:09:26;19.10;99.90
18781;DHT22;9519;51.890;8.970;2023-08-12T22:14:28;19.00;99.90
18781;DHT22;9519;51.890;8.970;2023-08-12T22:19:31;19.00;99.90
18781;DHT22;9519;51.890;8.970;2023-08-12T22:24:35;18.90;99.90
18781;DHT22;9519;51.890;8.970;2023-08-12T22:29:38;18.80;99.90
18781;DHT22;9519;51.890;8.970;2023-08-12T22:34:41;18.70;99.90
18781;DHT22;9519;51.890;8.970;2023-08-12T22:39:44;18.70;99.90
18781;DHT22;9519;51.890;8.970;2023-08-12T22:44:46;18.60;99.90
18781;DHT22;9519;51.890;8.970;2023-08-12T22:49:48;18.60;99.90
18781;DHT22;9519;51.890;8.970;2023-08-12T22:54:52;18.50;99.90
18781;DHT22;9519;51.890;8.970;2023-08-12T22:59:54;18.50;99.90
18781;DHT22;9519;51.890;8.970;2023-08-12T23:04:56;18.40;99.90
18781;DHT22;9519;51.890;8.970;2023-08-12T23:10:00;18.30;99.90
18781;DHT22;9519;51.890;8.970;2023-08-12T23:15:03;18.30;99.90
18781;DHT22;9519;51.890;8.970;2023-08-12T23:20:07;18.20;99.90
18781;DHT22;9519;51.890;8.970;2023-08-12T23:25:11;18.10;99.90
18781;DHT22;9519;51.890;8.970;2023-08-12T23:30:14;18.10;99.90
18781;DHT22;9519;51.890;8.970;2023-08-12T23:35:16;18.00;99.90
18781;DHT22;9519;51.890;8.970;2023-08-12T23:40:20;17.90;99.90
18781;DHT22;9519;51.890;8.970;2023-08-12T23:45:22;17.80;99.90
18781;DHT22;9519;51.890;8.970;2023-08-12T23:50:24;17.80;99.90
18781;DHT22;9519;51.890;8.970;2023-08-12T23:55:28;17.70;99.90
